AYN7051 UAAA-UACC
Flight info
| Callsign | AYN7051 |
|---|---|
| Flight time | N/A |
| Altitude | 36000 |
| Route | ETED1B ETEDA W333 BANOS DCT BEDK1K |
| Aircraft | A20N/M-SDE2E3FGHIRWXY/LB1 |
Departure
| Time | N/A |
|---|---|
| Airport | Almaty International Airport (UAAA) |
Arrival
| Time | 2026-05-07 03:38 |
|---|---|
| Airport | Nursultan Nazarbayev International Airport (UACC) |
| Time | Latitude | Longitude | Altitude | Speed | Heading |
|---|---|---|---|---|---|
| 2026-05-07 03:21 | 50.20861 | 72.45710 | 21584 ft | 361 kts | 301° |
| 2026-05-07 03:21 | 50.22201 | 72.42461 | 21184 ft | 359 kts | 301° |
| 2026-05-07 03:21 | 50.23550 | 72.39187 | 20776 ft | 357 kts | 301° |
| 2026-05-07 03:22 | 50.24878 | 72.35956 | 20372 ft | 354 kts | 301° |
| 2026-05-07 03:22 | 50.26199 | 72.32734 | 19969 ft | 352 kts | 300° |
| 2026-05-07 03:22 | 50.27514 | 72.29517 | 19567 ft | 350 kts | 300° |
| 2026-05-07 03:22 | 50.28807 | 72.26350 | 19169 ft | 348 kts | 300° |
| 2026-05-07 03:23 | 50.30114 | 72.23150 | 18764 ft | 346 kts | 300° |
| 2026-05-07 03:23 | 50.31393 | 72.20017 | 18368 ft | 344 kts | 300° |
| 2026-05-07 03:23 | 50.32670 | 72.16887 | 17969 ft | 342 kts | 300° |
| 2026-05-07 03:23 | 50.33495 | 72.14861 | 17715 ft | 340 kts | 300° |
| 2026-05-07 03:24 | 50.35078 | 72.10977 | 17226 ft | 337 kts | 300° |
| 2026-05-07 03:24 | 50.37833 | 72.04208 | 16364 ft | 333 kts | 300° |
| 2026-05-07 03:24 | 50.39070 | 72.01159 | 15991 ft | 331 kts | 299° |
| 2026-05-07 03:25 | 50.40288 | 71.98156 | 15628 ft | 329 kts | 299° |
| 2026-05-07 03:25 | 50.41512 | 71.95132 | 15258 ft | 327 kts | 299° |
| 2026-05-07 03:25 | 50.42717 | 71.92151 | 14895 ft | 326 kts | 298° |
| 2026-05-07 03:25 | 50.43922 | 71.89168 | 14579 ft | 324 kts | 298° |
| 2026-05-07 03:26 | 50.45132 | 71.86167 | 14255 ft | 323 kts | 298° |
| 2026-05-07 03:26 | 50.46314 | 71.83234 | 13939 ft | 321 kts | 298° |
| 2026-05-07 03:26 | 50.47507 | 71.80266 | 13617 ft | 319 kts | 298° |
| 2026-05-07 03:26 | 50.48690 | 71.77325 | 13296 ft | 318 kts | 298° |
| 2026-05-07 03:27 | 50.49851 | 71.74430 | 12979 ft | 317 kts | 298° |
| 2026-05-07 03:27 | 50.51021 | 71.71512 | 12658 ft | 316 kts | 298° |
| 2026-05-07 03:27 | 50.52183 | 71.68608 | 12338 ft | 315 kts | 298° |
| 2026-05-07 03:27 | 50.53356 | 71.65677 | 12013 ft | 314 kts | 298° |
| 2026-05-07 03:28 | 50.54506 | 71.62798 | 11693 ft | 313 kts | 298° |
| 2026-05-07 03:28 | 50.55647 | 71.59937 | 11375 ft | 311 kts | 298° |
| 2026-05-07 03:28 | 50.56795 | 71.57061 | 11050 ft | 306 kts | 297° |
| 2026-05-07 03:28 | 50.57906 | 71.54272 | 10728 ft | 300 kts | 297° |
| 2026-05-07 03:29 | 50.58999 | 71.51525 | 10384 ft | 297 kts | 297° |
| 2026-05-07 03:29 | 50.60087 | 71.48792 | 10040 ft | 293 kts | 297° |
| 2026-05-07 03:29 | 50.61157 | 71.46114 | 9701 ft | 290 kts | 298° |
| 2026-05-07 03:29 | 50.62319 | 71.43518 | 9355 ft | 289 kts | 302° |
| 2026-05-07 03:30 | 50.63502 | 71.41013 | 9014 ft | 286 kts | 302° |
| 2026-05-07 03:30 | 50.64695 | 71.38509 | 8671 ft | 284 kts | 302° |
| 2026-05-07 03:30 | 50.65864 | 71.36054 | 8333 ft | 283 kts | 303° |
| 2026-05-07 03:30 | 50.67117 | 71.33663 | 7982 ft | 284 kts | 312° |
| 2026-05-07 03:31 | 50.68686 | 71.31783 | 7643 ft | 287 kts | 326° |
| 2026-05-07 03:31 | 50.70454 | 71.30280 | 7302 ft | 287 kts | 329° |
| 2026-05-07 03:31 | 50.72206 | 71.28882 | 6962 ft | 285 kts | 329° |
| 2026-05-07 03:31 | 50.73976 | 71.27473 | 6619 ft | 283 kts | 329° |
| 2026-05-07 03:32 | 50.75726 | 71.26061 | 6278 ft | 281 kts | 329° |
| 2026-05-07 03:32 | 50.77438 | 71.24664 | 5940 ft | 280 kts | 329° |
| 2026-05-07 03:32 | 50.79157 | 71.23256 | 5601 ft | 278 kts | 329° |
| 2026-05-07 03:32 | 50.80880 | 71.21841 | 5252 ft | 275 kts | 329° |
| 2026-05-07 03:33 | 50.82550 | 71.20470 | 4906 ft | 273 kts | 331° |
| 2026-05-07 03:33 | 50.84358 | 71.19653 | 4561 ft | 276 kts | 358° |
| 2026-05-07 03:33 | 50.86180 | 71.20507 | 4223 ft | 276 kts | 36° |
| 2026-05-07 03:33 | 50.87419 | 71.22710 | 4216 ft | 259 kts | 55° |
| 2026-05-07 03:34 | 50.88441 | 71.24914 | 4206 ft | 245 kts | 50° |
| 2026-05-07 03:34 | 50.89550 | 71.26856 | 4166 ft | 232 kts | 44° |
| 2026-05-07 03:34 | 50.90703 | 71.28607 | 3952 ft | 229 kts | 43° |
| 2026-05-07 03:34 | 50.91863 | 71.30350 | 3688 ft | 226 kts | 43° |
| 2026-05-07 03:35 | 50.92959 | 71.32035 | 3443 ft | 219 kts | 44° |
| 2026-05-07 03:35 | 50.94026 | 71.33709 | 3115 ft | 210 kts | 44° |
| 2026-05-07 03:35 | 50.95033 | 71.35295 | 2848 ft | 197 kts | 44° |
| 2026-05-07 03:35 | 50.95964 | 71.36761 | 2582 ft | 183 kts | 44° |
| 2026-05-07 03:36 | 50.96823 | 71.38107 | 2338 ft | 164 kts | 44° |
| 2026-05-07 03:36 | 50.97591 | 71.39311 | 2120 ft | 147 kts | 44° |
| 2026-05-07 03:36 | 50.98284 | 71.40398 | 1924 ft | 135 kts | 44° |
| 2026-05-07 03:36 | 50.98937 | 71.41428 | 1729 ft | 133 kts | 45° |
| 2026-05-07 03:37 | 50.99598 | 71.42458 | 1576 ft | 133 kts | 44° |
| 2026-05-07 03:37 | 51.00268 | 71.43484 | 1432 ft | 132 kts | 44° |
| 2026-05-07 03:37 | 51.00913 | 71.44488 | 1277 ft | 131 kts | 45° |
| 2026-05-07 03:37 | 51.01549 | 71.45488 | 1169 ft | 115 kts | 44° |
| 2026-05-07 03:38 | 51.02001 | 71.46208 | 1166 ft | 58 kts | 45° |
| 2026-05-07 03:38 | 51.02195 | 71.46516 | 1166 ft | 36 kts | 46° |
| 2026-05-07 03:38 | 51.02337 | 71.46737 | 1166 ft | 33 kts | 43° |
| 2026-05-07 03:38 | 51.02491 | 71.46928 | 1166 ft | 23 kts | 355° |
| 2026-05-07 03:39 | 51.02612 | 71.46771 | 1167 ft | 22 kts | 314° |
| 2026-05-07 03:39 | 51.02702 | 71.46590 | 1169 ft | 20 kts | 278° |
| 2026-05-07 03:39 | 51.02697 | 71.46464 | 1169 ft | 9 kts | 262° |
| 2026-05-07 03:39 | 51.02731 | 71.46384 | 1169 ft | 9 kts | 314° |
| 2026-05-07 03:40 | 51.02744 | 71.46363 | 1169 ft | 0 kts | 313° |